N234PP KSAN-KSNA
Flight info
| Callsign | N234PP |
|---|---|
| Flight time | 0h 56m |
| Altitude | 6000 |
| Route | FALCC1 SLI |
| Aircraft | C172/L-SFG/C |
Departure
| Time | 2026-04-21 02:39 |
|---|---|
| Airport | San Diego International Airport (KSAN) |
Arrival
| Time | 2026-04-21 03:36 |
|---|---|
| Airport | John Wayne Orange County International Airport (KSNA) |
| Time | Latitude | Longitude | Altitude | Speed | Heading |
|---|---|---|---|---|---|
| 2026-04-21 02:19 | 32.73574 | -117.18586 | 19 ft | 0 kts | 264° |
| 2026-04-21 02:28 | 32.73576 | -117.18594 | 18 ft | 4 kts | 294° |
| 2026-04-21 02:28 | 32.73623 | -117.18587 | 17 ft | 10 kts | 69° |
| 2026-04-21 02:29 | 32.73571 | -117.18499 | 20 ft | 16 kts | 144° |
| 2026-04-21 02:29 | 32.73500 | -117.18444 | 21 ft | 4 kts | 149° |
| 2026-04-21 02:29 | 32.73491 | -117.18436 | 21 ft | 5 kts | 135° |
| 2026-04-21 02:29 | 32.73441 | -117.18386 | 22 ft | 7 kts | 159° |
| 2026-04-21 02:30 | 32.73416 | -117.18387 | 22 ft | 0 kts | 199° |
| 2026-04-21 02:30 | 32.73413 | -117.18388 | 22 ft | 2 kts | 201° |
| 2026-04-21 02:30 | 32.73409 | -117.18390 | 22 ft | 3 kts | 202° |
| 2026-04-21 02:30 | 32.73399 | -117.18395 | 22 ft | 0 kts | 203° |
| 2026-04-21 02:31 | 32.73385 | -117.18401 | 22 ft | 8 kts | 193° |
| 2026-04-21 02:31 | 32.73349 | -117.18467 | 23 ft | 15 kts | 286° |
| 2026-04-21 02:31 | 32.73380 | -117.18561 | 21 ft | 6 kts | 206° |
| 2026-04-21 02:31 | 32.73354 | -117.18485 | 23 ft | 15 kts | 108° |
| 2026-04-21 02:32 | 32.73323 | -117.18354 | 21 ft | 22 kts | 105° |
| 2026-04-21 02:32 | 32.73280 | -117.18181 | 21 ft | 21 kts | 106° |
| 2026-04-21 02:32 | 32.73244 | -117.18028 | 20 ft | 18 kts | 109° |
| 2026-04-21 02:32 | 32.73211 | -117.17889 | 20 ft | 16 kts | 104° |
| 2026-04-21 02:33 | 32.73183 | -117.17774 | 21 ft | 13 kts | 105° |
| 2026-04-21 02:33 | 32.73159 | -117.17682 | 21 ft | 8 kts | 126° |
| 2026-04-21 02:33 | 32.73122 | -117.17664 | 21 ft | 4 kts | 186° |
| 2026-04-21 02:33 | 32.73120 | -117.17665 | 21 ft | 0 kts | 190° |
| 2026-04-21 02:36 | 32.73119 | -117.17665 | 21 ft | 0 kts | 190° |
| 2026-04-21 02:37 | 32.73088 | -117.17675 | 20 ft | 13 kts | 198° |
| 2026-04-21 02:37 | 32.73057 | -117.17744 | 18 ft | 0 kts | 285° |
| 2026-04-21 02:38 | 32.73098 | -117.17904 | 17 ft | 47 kts | 287° |
| 2026-04-21 02:39 | 32.73224 | -117.18429 | 90 ft | 76 kts | 285° |
| 2026-04-21 02:39 | 32.73375 | -117.19048 | 328 ft | 76 kts | 287° |
| 2026-04-21 02:39 | 32.73636 | -117.19599 | 555 ft | 79 kts | 314° |
| 2026-04-21 02:39 | 32.74039 | -117.20030 | 833 ft | 76 kts | 317° |
| 2026-04-21 02:40 | 32.74435 | -117.20454 | 1052 ft | 80 kts | 318° |
| 2026-04-21 02:40 | 32.74828 | -117.20885 | 1315 ft | 76 kts | 315° |
| 2026-04-21 02:40 | 32.75211 | -117.21317 | 1554 ft | 77 kts | 316° |
| 2026-04-21 02:40 | 32.75633 | -117.21741 | 1793 ft | 78 kts | 318° |
| 2026-04-21 02:41 | 32.76050 | -117.22173 | 2017 ft | 78 kts | 316° |
| 2026-04-21 02:41 | 32.76463 | -117.22585 | 2249 ft | 79 kts | 326° |
| 2026-04-21 02:41 | 32.76987 | -117.22837 | 2433 ft | 84 kts | 341° |
| 2026-04-21 02:41 | 32.77545 | -117.23069 | 2629 ft | 86 kts | 341° |
| 2026-04-21 02:42 | 32.78111 | -117.23287 | 2835 ft | 85 kts | 340° |
| 2026-04-21 02:42 | 32.78676 | -117.23511 | 3029 ft | 86 kts | 341° |
| 2026-04-21 02:42 | 32.79240 | -117.23734 | 3228 ft | 86 kts | 341° |
| 2026-04-21 02:42 | 32.79813 | -117.23959 | 3410 ft | 87 kts | 340° |
| 2026-04-21 02:43 | 32.80391 | -117.24190 | 3575 ft | 89 kts | 340° |
| 2026-04-21 02:43 | 32.80977 | -117.24439 | 3732 ft | 92 kts | 339° |
| 2026-04-21 02:43 | 32.81583 | -117.24696 | 3920 ft | 92 kts | 338° |
| 2026-04-21 02:43 | 32.82188 | -117.24957 | 4073 ft | 95 kts | 338° |
| 2026-04-21 02:44 | 32.82816 | -117.25215 | 4208 ft | 98 kts | 340° |
| 2026-04-21 02:44 | 32.83496 | -117.25447 | 4355 ft | 96 kts | 342° |
| 2026-04-21 02:44 | 32.84134 | -117.25684 | 4519 ft | 97 kts | 339° |
| 2026-04-21 02:44 | 32.84786 | -117.25956 | 4620 ft | 99 kts | 335° |
| 2026-04-21 02:45 | 32.85427 | -117.26240 | 4765 ft | 100 kts | 338° |
| 2026-04-21 02:45 | 32.86074 | -117.26503 | 4934 ft | 97 kts | 339° |
| 2026-04-21 02:45 | 32.86722 | -117.26737 | 5093 ft | 97 kts | 339° |
| 2026-04-21 02:45 | 32.87372 | -117.26995 | 5236 ft | 98 kts | 339° |
| 2026-04-21 02:46 | 32.88014 | -117.27263 | 5378 ft | 100 kts | 337° |
| 2026-04-21 02:46 | 32.88678 | -117.27554 | 5497 ft | 103 kts | 338° |
| 2026-04-21 02:46 | 32.89362 | -117.27819 | 5648 ft | 102 kts | 341° |
| 2026-04-21 02:46 | 32.90040 | -117.28075 | 5759 ft | 105 kts | 339° |
| 2026-04-21 02:47 | 32.90721 | -117.28341 | 5942 ft | 101 kts | 339° |
| 2026-04-21 02:47 | 32.91398 | -117.28613 | 6019 ft | 107 kts | 339° |
| 2026-04-21 02:47 | 32.92120 | -117.28894 | 6093 ft | 110 kts | 339° |
| 2026-04-21 02:47 | 32.92880 | -117.29189 | 6122 ft | 119 kts | 340° |
| 2026-04-21 02:48 | 32.93682 | -117.29497 | 6149 ft | 123 kts | 340° |
| 2026-04-21 02:48 | 32.94514 | -117.29819 | 6110 ft | 130 kts | 340° |
| 2026-04-21 02:48 | 32.95361 | -117.30164 | 6155 ft | 127 kts | 338° |
| 2026-04-21 02:48 | 32.96207 | -117.30514 | 6136 ft | 130 kts | 339° |
| 2026-04-21 02:49 | 32.97068 | -117.30873 | 6088 ft | 133 kts | 339° |
| 2026-04-21 02:49 | 32.97952 | -117.31229 | 6043 ft | 133 kts | 339° |
| 2026-04-21 02:49 | 32.98836 | -117.31581 | 5991 ft | 134 kts | 340° |
| 2026-04-21 02:49 | 32.99729 | -117.31919 | 5923 ft | 135 kts | 340° |
| 2026-04-21 02:50 | 33.00609 | -117.32265 | 5936 ft | 131 kts | 339° |
| 2026-04-21 02:50 | 33.01466 | -117.32599 | 5966 ft | 129 kts | 340° |
| 2026-04-21 02:50 | 33.02306 | -117.32922 | 6013 ft | 127 kts | 338° |
| 2026-04-21 02:50 | 33.03125 | -117.33251 | 6062 ft | 126 kts | 339° |
| 2026-04-21 02:51 | 33.03972 | -117.33578 | 6058 ft | 128 kts | 340° |
| 2026-04-21 02:51 | 33.04819 | -117.33908 | 6061 ft | 129 kts | 339° |
| 2026-04-21 02:51 | 33.05670 | -117.34269 | 6054 ft | 129 kts | 337° |
| 2026-04-21 02:51 | 33.06501 | -117.34629 | 6049 ft | 125 kts | 337° |
| 2026-04-21 02:52 | 33.07304 | -117.34968 | 6044 ft | 120 kts | 341° |
| 2026-04-21 02:52 | 33.08092 | -117.35254 | 6051 ft | 116 kts | 341° |
| 2026-04-21 02:52 | 33.08859 | -117.35521 | 6050 ft | 115 kts | 341° |
| 2026-04-21 02:52 | 33.09622 | -117.35803 | 6069 ft | 114 kts | 341° |
| 2026-04-21 02:53 | 33.10391 | -117.36083 | 6015 ft | 119 kts | 342° |
| 2026-04-21 02:53 | 33.11190 | -117.36344 | 5998 ft | 120 kts | 343° |
| 2026-04-21 02:53 | 33.11981 | -117.36604 | 6057 ft | 117 kts | 340° |
| 2026-04-21 02:53 | 33.12757 | -117.36939 | 6075 ft | 120 kts | 338° |
| 2026-04-21 02:54 | 33.13535 | -117.37318 | 6033 ft | 125 kts | 334° |
| 2026-04-21 02:54 | 33.14332 | -117.37725 | 6035 ft | 124 kts | 334° |
| 2026-04-21 02:54 | 33.15131 | -117.38134 | 6011 ft | 126 kts | 335° |
| 2026-04-21 02:54 | 33.15938 | -117.38535 | 6018 ft | 125 kts | 335° |
| 2026-04-21 02:55 | 33.16745 | -117.38902 | 6059 ft | 122 kts | 337° |
| 2026-04-21 02:55 | 33.17565 | -117.39250 | 6002 ft | 127 kts | 340° |
| 2026-04-21 02:55 | 33.18396 | -117.39567 | 6033 ft | 123 kts | 341° |
| 2026-04-21 02:55 | 33.19204 | -117.39866 | 6092 ft | 119 kts | 337° |
| 2026-04-21 02:56 | 33.19991 | -117.40250 | 6031 ft | 125 kts | 332° |
| 2026-04-21 02:56 | 33.21533 | -117.41071 | 6103 ft | 120 kts | 340° |
| 2026-04-21 02:56 | 33.22374 | -117.41335 | 6042 ft | 126 kts | 347° |
| 2026-04-21 02:57 | 33.23218 | -117.41527 | 6060 ft | 126 kts | 347° |
| 2026-04-21 02:57 | 33.24093 | -117.41760 | 5975 ft | 130 kts | 344° |
| 2026-04-21 02:57 | 33.24857 | -117.42299 | 5878 ft | 130 kts | 311° |
| 2026-04-21 02:57 | 33.25475 | -117.43032 | 5939 ft | 122 kts | 312° |
| 2026-04-21 02:58 | 33.26067 | -117.43748 | 5949 ft | 121 kts | 310° |
| 2026-04-21 02:58 | 33.26646 | -117.44485 | 5918 ft | 123 kts | 310° |
| 2026-04-21 02:58 | 33.27236 | -117.45221 | 5931 ft | 121 kts | 311° |
| 2026-04-21 02:58 | 33.27821 | -117.45930 | 5954 ft | 119 kts | 311° |
| 2026-04-21 02:59 | 33.28400 | -117.46624 | 6002 ft | 117 kts | 311° |
| 2026-04-21 02:59 | 33.28973 | -117.47346 | 5965 ft | 121 kts | 310° |
| 2026-04-21 02:59 | 33.29574 | -117.48056 | 5961 ft | 122 kts | 313° |
| 2026-04-21 02:59 | 33.30192 | -117.48749 | 5955 ft | 123 kts | 314° |
| 2026-04-21 03:00 | 33.30799 | -117.49451 | 5948 ft | 122 kts | 313° |
| 2026-04-21 03:00 | 33.31418 | -117.50146 | 5952 ft | 122 kts | 313° |
| 2026-04-21 03:00 | 33.32021 | -117.50842 | 5967 ft | 121 kts | 311° |
| 2026-04-21 03:00 | 33.32615 | -117.51562 | 5976 ft | 120 kts | 310° |
| 2026-04-21 03:01 | 33.33177 | -117.52285 | 6015 ft | 118 kts | 309° |
| 2026-04-21 03:01 | 33.33725 | -117.53021 | 6014 ft | 119 kts | 309° |
| 2026-04-21 03:01 | 33.34294 | -117.53747 | 6024 ft | 120 kts | 313° |
| 2026-04-21 03:01 | 33.34897 | -117.54436 | 6029 ft | 120 kts | 313° |
| 2026-04-21 03:02 | 33.35503 | -117.55127 | 6022 ft | 121 kts | 313° |
| 2026-04-21 03:02 | 33.36114 | -117.55819 | 6026 ft | 120 kts | 314° |
| 2026-04-21 03:02 | 33.36726 | -117.56513 | 6000 ft | 122 kts | 313° |
| 2026-04-21 03:02 | 33.37312 | -117.57230 | 6029 ft | 119 kts | 309° |
| 2026-04-21 03:03 | 33.37885 | -117.57964 | 6005 ft | 121 kts | 311° |
| 2026-04-21 03:03 | 33.38478 | -117.58663 | 6012 ft | 121 kts | 313° |
| 2026-04-21 03:03 | 33.39082 | -117.59361 | 6022 ft | 121 kts | 313° |
| 2026-04-21 03:03 | 33.39666 | -117.60084 | 6025 ft | 121 kts | 312° |
| 2026-04-21 03:04 | 33.40272 | -117.60782 | 6032 ft | 121 kts | 314° |
| 2026-04-21 03:04 | 33.40891 | -117.61473 | 6024 ft | 122 kts | 314° |
| 2026-04-21 03:04 | 33.41511 | -117.62158 | 6022 ft | 121 kts | 314° |
| 2026-04-21 03:04 | 33.42115 | -117.62854 | 6028 ft | 120 kts | 311° |
| 2026-04-21 03:05 | 33.42693 | -117.63583 | 6009 ft | 122 kts | 310° |
| 2026-04-21 03:05 | 33.43297 | -117.64289 | 6022 ft | 121 kts | 315° |
| 2026-04-21 03:05 | 33.43895 | -117.64997 | 6020 ft | 121 kts | 309° |
| 2026-04-21 03:05 | 33.44429 | -117.65765 | 6036 ft | 119 kts | 305° |
| 2026-04-21 03:06 | 33.44975 | -117.66525 | 6033 ft | 120 kts | 310° |
| 2026-04-21 03:06 | 33.45571 | -117.67235 | 6018 ft | 123 kts | 314° |
| 2026-04-21 03:06 | 33.46190 | -117.67935 | 6014 ft | 123 kts | 313° |
| 2026-04-21 03:06 | 33.46783 | -117.68655 | 6033 ft | 121 kts | 309° |
| 2026-04-21 03:07 | 33.47348 | -117.69404 | 6018 ft | 122 kts | 311° |
| 2026-04-21 03:07 | 33.47956 | -117.70119 | 5997 ft | 123 kts | 314° |
| 2026-04-21 03:07 | 33.48590 | -117.70809 | 6008 ft | 122 kts | 316° |
| 2026-04-21 03:07 | 33.49234 | -117.71470 | 6008 ft | 122 kts | 317° |
| 2026-04-21 03:08 | 33.49885 | -117.72130 | 6013 ft | 122 kts | 318° |
| 2026-04-21 03:08 | 33.50545 | -117.72776 | 6003 ft | 123 kts | 318° |
| 2026-04-21 03:08 | 33.51210 | -117.73426 | 6010 ft | 122 kts | 317° |
| 2026-04-21 03:08 | 33.51834 | -117.74081 | 6028 ft | 120 kts | 314° |
| 2026-04-21 03:09 | 33.52441 | -117.74781 | 6013 ft | 122 kts | 314° |
| 2026-04-21 03:09 | 33.53054 | -117.75478 | 6021 ft | 121 kts | 313° |
| 2026-04-21 03:09 | 33.53648 | -117.76193 | 6026 ft | 121 kts | 313° |
| 2026-04-21 03:09 | 33.54258 | -117.76898 | 6026 ft | 121 kts | 314° |
| 2026-04-21 03:10 | 33.54883 | -117.77588 | 6031 ft | 122 kts | 313° |
| 2026-04-21 03:10 | 33.55482 | -117.78300 | 6040 ft | 121 kts | 311° |
| 2026-04-21 03:10 | 33.56068 | -117.79022 | 6053 ft | 121 kts | 313° |
| 2026-04-21 03:10 | 33.56666 | -117.79738 | 6040 ft | 121 kts | 311° |
| 2026-04-21 03:11 | 33.57236 | -117.80458 | 6046 ft | 120 kts | 312° |
| 2026-04-21 03:11 | 33.57827 | -117.81180 | 6030 ft | 123 kts | 313° |
| 2026-04-21 03:11 | 33.58437 | -117.81891 | 6044 ft | 121 kts | 313° |
| 2026-04-21 03:11 | 33.59042 | -117.82593 | 6045 ft | 122 kts | 313° |
| 2026-04-21 03:12 | 33.59648 | -117.83310 | 6047 ft | 122 kts | 312° |
| 2026-04-21 03:12 | 33.60249 | -117.84031 | 6056 ft | 122 kts | 313° |
| 2026-04-21 03:12 | 33.60858 | -117.84746 | 6056 ft | 123 kts | 313° |
| 2026-04-21 03:12 | 33.61468 | -117.85456 | 6074 ft | 122 kts | 314° |
| 2026-04-21 03:13 | 33.62091 | -117.86153 | 6061 ft | 123 kts | 313° |
| 2026-04-21 03:13 | 33.62689 | -117.86879 | 6073 ft | 122 kts | 311° |
| 2026-04-21 03:13 | 33.63080 | -117.87359 | 6078 ft | 122 kts | 311° |
| 2026-04-21 03:13 | 33.63665 | -117.88094 | 6082 ft | 121 kts | 310° |
| 2026-04-21 03:14 | 33.64226 | -117.88833 | 5985 ft | 118 kts | 309° |
| 2026-04-21 03:14 | 33.64804 | -117.89530 | 5892 ft | 117 kts | 314° |
| 2026-04-21 03:14 | 33.65380 | -117.90209 | 5785 ft | 116 kts | 313° |
| 2026-04-21 03:14 | 33.65959 | -117.90899 | 5654 ft | 118 kts | 313° |
| 2026-04-21 03:15 | 33.66543 | -117.91583 | 5549 ft | 117 kts | 313° |
| 2026-04-21 03:15 | 33.67127 | -117.92281 | 5425 ft | 118 kts | 312° |
| 2026-04-21 03:15 | 33.67796 | -117.92798 | 5316 ft | 120 kts | 346° |
| 2026-04-21 03:15 | 33.68621 | -117.92718 | 5268 ft | 116 kts | 12° |
| 2026-04-21 03:16 | 33.69408 | -117.92514 | 5193 ft | 115 kts | 12° |
| 2026-04-21 03:16 | 33.70196 | -117.92325 | 5132 ft | 115 kts | 11° |
| 2026-04-21 03:16 | 33.70994 | -117.92146 | 5090 ft | 116 kts | 10° |
| 2026-04-21 03:16 | 33.71782 | -117.91991 | 5015 ft | 113 kts | 8° |
| 2026-04-21 03:17 | 33.72555 | -117.91860 | 4862 ft | 111 kts | 7° |
| 2026-04-21 03:17 | 33.73323 | -117.91726 | 4693 ft | 112 kts | 11° |
| 2026-04-21 03:17 | 33.74087 | -117.91550 | 4510 ft | 113 kts | 11° |
| 2026-04-21 03:17 | 33.74862 | -117.91370 | 4323 ft | 113 kts | 11° |
| 2026-04-21 03:18 | 33.75644 | -117.91195 | 4078 ft | 115 kts | 11° |
| 2026-04-21 03:18 | 33.76428 | -117.91017 | 3877 ft | 113 kts | 10° |
| 2026-04-21 03:18 | 33.77205 | -117.90870 | 3695 ft | 114 kts | 7° |
| 2026-04-21 03:18 | 33.77982 | -117.90733 | 3483 ft | 115 kts | 8° |
| 2026-04-21 03:19 | 33.78769 | -117.90586 | 3278 ft | 115 kts | 11° |
| 2026-04-21 03:19 | 33.79544 | -117.90394 | 3138 ft | 112 kts | 11° |
| 2026-04-21 03:19 | 33.80301 | -117.90191 | 3060 ft | 107 kts | 14° |
| 2026-04-21 03:19 | 33.81011 | -117.90028 | 3028 ft | 102 kts | 10° |
| 2026-04-21 03:20 | 33.81704 | -117.89878 | 3015 ft | 102 kts | 9° |
| 2026-04-21 03:20 | 33.82410 | -117.89748 | 3002 ft | 102 kts | 7° |
| 2026-04-21 03:20 | 33.83109 | -117.89622 | 3007 ft | 102 kts | 8° |
| 2026-04-21 03:20 | 33.83818 | -117.89500 | 3019 ft | 105 kts | 8° |
| 2026-04-21 03:21 | 33.84531 | -117.89361 | 3047 ft | 106 kts | 9° |
| 2026-04-21 03:21 | 33.85259 | -117.89212 | 3075 ft | 106 kts | 9° |
| 2026-04-21 03:21 | 33.85986 | -117.89056 | 3104 ft | 104 kts | 9° |
| 2026-04-21 03:21 | 33.86719 | -117.88921 | 3098 ft | 108 kts | 9° |
| 2026-04-21 03:22 | 33.87406 | -117.88579 | 3072 ft | 112 kts | 46° |
| 2026-04-21 03:22 | 33.87742 | -117.87759 | 3107 ft | 108 kts | 73° |
| 2026-04-21 03:22 | 33.87978 | -117.86886 | 3098 ft | 108 kts | 74° |
| 2026-04-21 03:22 | 33.88233 | -117.86053 | 3127 ft | 106 kts | 72° |
| 2026-04-21 03:23 | 33.88515 | -117.85210 | 3091 ft | 110 kts | 71° |
| 2026-04-21 03:23 | 33.88815 | -117.84356 | 3081 ft | 111 kts | 71° |
| 2026-04-21 03:23 | 33.89134 | -117.83511 | 3085 ft | 110 kts | 66° |
| 2026-04-21 03:23 | 33.89471 | -117.82671 | 3056 ft | 112 kts | 66° |
| 2026-04-21 03:24 | 33.89820 | -117.81828 | 3052 ft | 113 kts | 65° |
| 2026-04-21 03:24 | 33.90131 | -117.80951 | 3007 ft | 116 kts | 84° |
| 2026-04-21 03:24 | 33.90067 | -117.80011 | 3021 ft | 111 kts | 100° |
| 2026-04-21 03:24 | 33.89949 | -117.79111 | 3051 ft | 109 kts | 103° |
| 2026-04-21 03:25 | 33.89846 | -117.78206 | 3066 ft | 109 kts | 99° |
| 2026-04-21 03:25 | 33.89770 | -117.77297 | 3055 ft | 110 kts | 99° |
| 2026-04-21 03:25 | 33.89685 | -117.76389 | 3021 ft | 109 kts | 99° |
| 2026-04-21 03:25 | 33.89603 | -117.75491 | 3065 ft | 105 kts | 100° |
| 2026-04-21 03:26 | 33.89499 | -117.74608 | 3054 ft | 108 kts | 103° |
| 2026-04-21 03:26 | 33.89396 | -117.73714 | 3057 ft | 109 kts | 101° |
| 2026-04-21 03:26 | 33.89081 | -117.72920 | 3076 ft | 103 kts | 141° |
| 2026-04-21 03:26 | 33.88453 | -117.72702 | 3132 ft | 96 kts | 193° |
| 2026-04-21 03:27 | 33.87873 | -117.73113 | 3092 ft | 102 kts | 220° |
| 2026-04-21 03:27 | 33.87368 | -117.73722 | 3085 ft | 103 kts | 230° |
| 2026-04-21 03:27 | 33.86969 | -117.74431 | 3070 ft | 102 kts | 227° |
| 2026-04-21 03:27 | 33.86448 | -117.75013 | 3043 ft | 104 kts | 221° |
| 2026-04-21 03:28 | 33.85887 | -117.75530 | 3044 ft | 100 kts | 215° |
| 2026-04-21 03:28 | 33.85273 | -117.75923 | 2990 ft | 99 kts | 204° |
| 2026-04-21 03:28 | 33.84634 | -117.76242 | 2917 ft | 99 kts | 203° |
| 2026-04-21 03:28 | 33.83992 | -117.76585 | 2897 ft | 102 kts | 207° |
| 2026-04-21 03:29 | 33.83373 | -117.76997 | 2910 ft | 100 kts | 212° |
| 2026-04-21 03:29 | 33.82753 | -117.77408 | 2923 ft | 102 kts | 207° |
| 2026-04-21 03:29 | 33.82124 | -117.77786 | 2972 ft | 100 kts | 207° |
| 2026-04-21 03:29 | 33.81494 | -117.78130 | 2946 ft | 101 kts | 204° |
| 2026-04-21 03:30 | 33.80855 | -117.78505 | 2912 ft | 97 kts | 208° |
| 2026-04-21 03:30 | 33.80281 | -117.78855 | 2882 ft | 91 kts | 207° |
| 2026-04-21 03:30 | 33.79720 | -117.79205 | 2819 ft | 91 kts | 208° |
| 2026-04-21 03:30 | 33.79156 | -117.79565 | 2715 ft | 91 kts | 208° |
| 2026-04-21 03:31 | 33.78589 | -117.79922 | 2568 ft | 95 kts | 208° |
| 2026-04-21 03:31 | 33.77996 | -117.80299 | 2381 ft | 99 kts | 208° |
| 2026-04-21 03:31 | 33.77395 | -117.80685 | 2218 ft | 97 kts | 210° |
| 2026-04-21 03:31 | 33.76809 | -117.81085 | 2050 ft | 96 kts | 211° |
| 2026-04-21 03:32 | 33.76221 | -117.81470 | 1867 ft | 96 kts | 209° |
| 2026-04-21 03:32 | 33.75637 | -117.81818 | 1747 ft | 94 kts | 206° |
| 2026-04-21 03:32 | 33.75046 | -117.82158 | 1565 ft | 95 kts | 208° |
| 2026-04-21 03:32 | 33.74465 | -117.82535 | 1406 ft | 95 kts | 212° |
| 2026-04-21 03:33 | 33.73920 | -117.82936 | 1291 ft | 89 kts | 215° |
| 2026-04-21 03:33 | 33.73379 | -117.83312 | 1094 ft | 91 kts | 202° |
| 2026-04-21 03:33 | 33.72809 | -117.83604 | 1025 ft | 88 kts | 208° |
| 2026-04-21 03:33 | 33.72276 | -117.83899 | 950 ft | 82 kts | 207° |
| 2026-04-21 03:34 | 33.71774 | -117.84197 | 868 ft | 78 kts | 213° |
| 2026-04-21 03:34 | 33.71291 | -117.84509 | 809 ft | 78 kts | 212° |
| 2026-04-21 03:34 | 33.70811 | -117.84831 | 694 ft | 81 kts | 211° |
| 2026-04-21 03:34 | 33.70320 | -117.85126 | 650 ft | 76 kts | 209° |
| 2026-04-21 03:35 | 33.69844 | -117.85429 | 551 ft | 78 kts | 211° |
| 2026-04-21 03:35 | 33.69358 | -117.85738 | 393 ft | 79 kts | 211° |
| 2026-04-21 03:35 | 33.68886 | -117.86039 | 240 ft | 75 kts | 212° |
| 2026-04-21 03:35 | 33.68449 | -117.86316 | 139 ft | 68 kts | 215° |
| 2026-04-21 03:36 | 33.68028 | -117.86586 | 48 ft | 66 kts | 197° |
| 2026-04-21 03:36 | 33.67921 | -117.86615 | 48 ft | 8 kts | 264° |
| 2026-04-21 03:36 | 33.67874 | -117.86684 | 51 ft | 14 kts | 212° |
| 2026-04-21 03:36 | 33.67769 | -117.86731 | 55 ft | 16 kts | 139° |
| 2026-04-21 03:37 | 33.67730 | -117.86658 | 56 ft | 0 kts | 115° |